createdAt,value
2019-04-29T00:00:35.550Z,19.62
2019-04-29T00:03:05.917Z,18.87
2019-04-29T00:05:35.867Z,17.80
2019-04-29T00:08:05.821Z,17.10
2019-04-29T00:10:35.944Z,17.12
2019-04-29T00:13:06.042Z,15.60
2019-04-29T00:15:53.219Z,16.17
2019-04-29T00:18:27.700Z,15.93
2019-04-29T00:20:57.780Z,17.15
2019-04-29T00:23:27.829Z,16.87
2019-04-29T00:25:57.940Z,16.57
2019-04-29T00:28:28.918Z,15.50
2019-04-29T00:30:59.515Z,14.83
2019-04-29T00:33:29.444Z,14.07
2019-04-29T00:35:59.373Z,14.50
2019-04-29T00:38:31.067Z,14.85
2019-04-29T00:41:05.646Z,16.15
2019-04-29T00:43:55.812Z,14.85
2019-04-29T00:46:25.809Z,15.30
2019-04-29T00:48:55.809Z,15.78
2019-04-29T00:51:25.747Z,16.12
2019-04-29T00:53:57.421Z,14.23
2019-04-29T00:56:27.371Z,14.78
2019-04-29T00:58:57.335Z,13.20
2019-04-29T01:01:27.392Z,13.30
2019-04-29T01:03:57.369Z,14.13
2019-04-29T01:06:27.394Z,13.78
2019-04-29T01:08:57.409Z,15.83
2019-04-29T01:11:27.452Z,14.40
2019-04-29T01:13:57.426Z,15.40
2019-04-29T01:16:27.622Z,14.15
2019-04-29T01:18:57.587Z,13.00
2019-04-29T01:21:27.587Z,13.08
2019-04-29T01:23:57.841Z,14.15
2019-04-29T01:26:36.095Z,12.70
2019-04-29T01:29:07.801Z,13.45
2019-04-29T01:31:37.782Z,13.08
2019-04-29T01:34:09.443Z,13.98
2019-04-29T01:36:44.611Z,13.35
2019-04-29T01:39:15.733Z,13.93
2019-04-29T01:41:50.375Z,13.20
2019-04-29T01:44:22.027Z,11.68
2019-04-29T01:46:52.145Z,11.65
2019-04-29T01:49:22.152Z,11.50
2019-04-29T01:51:52.170Z,9.68
2019-04-29T01:54:23.309Z,10.05
2019-04-29T01:56:53.378Z,10.85
2019-04-29T01:59:23.535Z,10.48
2019-04-29T02:01:53.708Z,10.88
2019-04-29T02:04:23.790Z,11.45
2019-04-29T02:06:53.916Z,11.25
2019-04-29T02:09:28.356Z,12.07
2019-04-29T02:11:58.377Z,11.65
2019-04-29T02:14:28.354Z,11.70
2019-04-29T02:16:58.439Z,11.95
2019-04-29T02:19:28.476Z,12.47
2019-04-29T02:22:09.416Z,11.90
2019-04-29T02:24:47.201Z,12.30
2019-04-29T02:27:17.234Z,11.75
2019-04-29T02:29:47.367Z,12.00
2019-04-29T02:32:17.362Z,12.53
2019-04-29T02:34:47.312Z,12.07
2019-04-29T02:37:18.924Z,10.80
2019-04-29T02:39:50.881Z,10.43
2019-04-29T02:42:40.958Z,10.38
2019-04-29T02:45:12.971Z,10.75
2019-04-29T02:47:42.998Z,11.50
2019-04-29T02:50:13.668Z,11.70
2019-04-29T02:52:43.661Z,11.65
2019-04-29T02:55:15.583Z,11.55
2019-04-29T02:58:02.342Z,11.53
2019-04-29T03:00:34.013Z,11.83
2019-04-29T03:03:08.714Z,11.20
2019-04-29T03:05:43.160Z,11.08
2019-04-29T03:08:13.142Z,11.90
2019-04-29T03:10:43.275Z,12.43
2019-04-29T03:13:13.299Z,11.10
2019-04-29T03:15:43.702Z,10.68
2019-04-29T03:18:13.803Z,10.95
2019-04-29T03:20:45.580Z,10.90
2019-04-29T03:23:17.184Z,9.65
2019-04-29T03:25:48.675Z,10.00
2019-04-29T03:28:18.677Z,9.20
2019-04-29T03:30:48.752Z,10.65
2019-04-29T03:33:18.851Z,10.43
2019-04-29T03:35:49.923Z,9.75
2019-04-29T03:38:19.982Z,10.32
2019-04-29T03:40:50.024Z,11.15
2019-04-29T03:43:20.043Z,10.25
2019-04-29T03:45:50.143Z,11.60
2019-04-29T03:48:20.143Z,11.88
2019-04-29T03:50:50.093Z,11.65
2019-04-29T03:53:19.874Z,12.03
2019-04-29T03:55:51.408Z,13.18
2019-04-29T03:58:21.413Z,13.28
2019-04-29T04:00:53.017Z,14.23
2019-04-29T04:03:30.754Z,14.23
2019-04-29T04:06:11.324Z,15.25
2019-04-29T04:09:04.324Z,15.75
2019-04-29T04:11:17.380Z,15.70
2019-04-29T04:13:47.417Z,16.77
2019-04-29T04:16:19.068Z,14.00
2019-04-29T04:18:49.127Z,15.95
2019-04-29T04:21:19.159Z,17.52
2019-04-29T04:23:49.116Z,18.20
2019-04-29T04:26:19.081Z,18.30
2019-04-29T04:28:49.136Z,18.45
2019-04-29T04:31:19.167Z,18.23
2019-04-29T04:33:49.473Z,19.37
2019-04-29T04:36:19.554Z,18.05
2019-04-29T04:38:49.580Z,18.60
2019-04-29T04:41:19.616Z,18.00
2019-04-29T04:43:49.887Z,18.70
2019-04-29T04:46:19.852Z,19.27
2019-04-29T04:48:49.823Z,19.90
2019-04-29T04:51:19.801Z,16.45
2019-04-29T04:53:49.808Z,16.50
2019-04-29T04:56:19.858Z,17.82
2019-04-29T04:58:49.861Z,20.25
2019-04-29T05:01:19.809Z,19.20
2019-04-29T05:03:50.004Z,19.48
2019-04-29T05:06:20.054Z,19.55
2019-04-29T05:08:50.276Z,18.70
2019-04-29T05:11:20.319Z,18.85
2019-04-29T05:13:50.350Z,18.27
2019-04-29T05:16:20.311Z,18.02
2019-04-29T05:18:50.345Z,17.48
2019-04-29T05:21:20.288Z,15.75
2019-04-29T05:23:50.250Z,16.40
2019-04-29T05:26:20.258Z,17.48
2019-04-29T05:28:50.611Z,17.45
2019-04-29T05:31:20.601Z,17.35
2019-04-29T05:33:50.583Z,16.25
2019-04-29T05:36:22.186Z,14.73
2019-04-29T05:38:53.863Z,15.55
2019-04-29T05:41:24.294Z,16.70
2019-04-29T05:44:13.577Z,16.48
2019-04-29T05:46:50.890Z,15.50
2019-04-29T05:49:22.572Z,15.63
2019-04-29T05:51:57.456Z,14.78
2019-04-29T05:54:31.598Z,15.08
2019-04-29T05:57:01.559Z,15.15
2019-04-29T05:59:31.508Z,15.15
2019-04-29T06:02:01.742Z,15.70
2019-04-29T06:04:31.727Z,15.48
2019-04-29T06:07:08.935Z,15.25
2019-04-29T06:09:38.914Z,15.65
2019-04-29T06:12:08.994Z,15.23
2019-04-29T06:14:39.070Z,15.58
2019-04-29T06:17:09.014Z,16.05
2019-04-29T06:19:40.730Z,15.83
2019-04-29T06:22:10.644Z,14.47
2019-04-29T06:24:41.103Z,14.30
2019-04-29T06:27:12.287Z,15.03
2019-04-29T06:29:42.234Z,16.80
2019-04-29T06:32:13.723Z,16.75
2019-04-29T06:34:43.656Z,16.00
2019-04-29T06:37:13.875Z,16.25
2019-04-29T06:39:43.816Z,16.35
2019-04-29T06:42:15.515Z,15.60
2019-04-29T06:44:48.929Z,16.42
2019-04-29T06:47:17.223Z,17.20
2019-04-29T06:49:47.772Z,14.98
2019-04-29T06:52:17.831Z,16.70
2019-04-29T06:54:47.800Z,13.28
2019-04-29T06:57:17.762Z,14.53
2019-04-29T06:59:48.653Z,11.88
2019-04-29T07:02:18.823Z,12.23
2019-04-29T07:04:48.829Z,11.20
2019-04-29T07:07:18.855Z,10.15
2019-04-29T07:09:48.927Z,10.85
2019-04-29T07:12:18.916Z,10.75
2019-04-29T07:14:49.260Z,10.75
2019-04-29T07:17:19.269Z,10.98
2019-04-29T07:19:49.304Z,9.43
2019-04-29T07:22:20.857Z,9.65
2019-04-29T07:24:50.992Z,10.65
2019-04-29T07:27:20.938Z,10.60
2019-04-29T07:29:51.034Z,8.65
2019-04-29T07:32:21.947Z,9.10
2019-04-29T07:34:51.908Z,9.65
2019-04-29T07:37:21.863Z,10.78
2019-04-29T07:39:51.963Z,10.80
2019-04-29T07:42:24.552Z,10.78
2019-04-29T07:45:11.799Z,11.50
2019-04-29T07:47:55.842Z,11.08
2019-04-29T07:50:17.179Z,9.70
2019-04-29T07:52:49.919Z,10.30
2019-04-29T07:55:19.983Z,7.87
2019-04-29T07:57:52.127Z,9.50
2019-04-29T08:00:24.861Z,8.60
2019-04-29T08:02:55.102Z,7.72
2019-04-29T08:05:25.184Z,8.28
2019-04-29T08:07:55.445Z,8.58
2019-04-29T08:10:28.556Z,9.00
2019-04-29T08:12:59.742Z,10.18
2019-04-29T08:15:31.843Z,10.25
2019-04-29T08:18:06.731Z,7.45
2019-04-29T08:20:35.463Z,7.62
2019-04-29T08:23:05.926Z,5.70
2019-04-29T08:25:35.871Z,5.42
2019-04-29T08:28:06.876Z,6.37
2019-04-29T08:30:36.911Z,5.80
2019-04-29T08:33:07.478Z,5.83
2019-04-29T08:35:38.468Z,5.95
2019-04-29T08:38:08.386Z,5.97
2019-04-29T08:40:38.320Z,6.03
2019-04-29T08:43:10.970Z,5.33
2019-04-29T08:45:42.619Z,5.62
2019-04-29T08:48:12.820Z,5.33
2019-04-29T08:50:42.907Z,5.80
2019-04-29T08:53:12.910Z,5.20
2019-04-29T08:55:42.942Z,5.17
2019-04-29T08:58:12.987Z,5.37
2019-04-29T09:00:43.276Z,5.72
2019-04-29T09:03:13.310Z,6.25
2019-04-29T09:05:46.163Z,5.60
2019-04-29T09:08:15.058Z,5.37
2019-04-29T09:10:45.039Z,5.80
2019-04-29T09:13:14.979Z,5.42
2019-04-29T09:15:44.957Z,5.10
2019-04-29T09:18:14.926Z,5.83
2019-04-29T09:20:44.938Z,5.70
2019-04-29T09:23:19.482Z,6.28
2019-04-29T09:26:06.176Z,6.30
2019-04-29T09:28:36.130Z,6.80
2019-04-29T09:31:06.098Z,6.12
2019-04-29T09:33:36.117Z,5.42
2019-04-29T09:36:09.581Z,6.97
2019-04-29T09:38:38.444Z,6.92
2019-04-29T09:41:12.885Z,7.10
2019-04-29T09:43:46.896Z,6.67
2019-04-29T09:46:18.732Z,9.93
2019-04-29T09:48:49.790Z,13.72
2019-04-29T09:51:22.652Z,14.80
2019-04-29T09:53:52.370Z,15.45
2019-04-29T09:56:22.374Z,17.60
2019-04-29T09:58:55.170Z,16.45
2019-04-29T10:01:26.763Z,17.85
2019-04-29T10:03:58.717Z,17.80
2019-04-29T10:06:30.324Z,19.00
2019-04-29T10:09:00.563Z,19.50
2019-04-29T10:11:32.157Z,21.52
2019-04-29T10:14:02.202Z,22.15
2019-04-29T10:16:37.176Z,23.22
2019-04-29T10:19:25.681Z,23.15
2019-04-29T10:21:55.746Z,23.50
2019-04-29T10:24:48.167Z,22.48
2019-04-29T10:27:18.263Z,23.38
2019-04-29T10:29:50.685Z,22.27
2019-04-29T10:32:22.899Z,23.67
2019-04-29T10:34:52.990Z,24.35
2019-04-29T10:37:29.510Z,25.00
2019-04-29T10:40:10.957Z,21.85
2019-04-29T10:42:53.571Z,23.87
2019-04-29T10:45:31.112Z,24.32
2019-04-29T10:48:05.162Z,24.37
2019-04-29T10:50:42.658Z,24.50
2019-04-29T10:53:15.528Z,23.55
2019-04-29T10:55:44.428Z,23.95
2019-04-29T10:58:14.481Z,24.67
2019-04-29T11:01:06.476Z,22.00
2019-04-29T11:03:36.600Z,26.10
2019-04-29T11:06:06.708Z,23.27
2019-04-29T11:08:47.453Z,24.87
2019-04-29T11:11:23.281Z,23.47
2019-04-29T11:13:50.656Z,24.30
2019-04-29T11:16:22.995Z,23.32
2019-04-29T11:18:54.918Z,21.40
2019-04-29T11:21:29.509Z,24.15
2019-04-29T11:23:58.823Z,23.95
2019-04-29T11:26:30.497Z,23.10
2019-04-29T11:29:01.378Z,25.17
2019-04-29T11:31:32.631Z,24.82
2019-04-29T11:34:19.374Z,19.80
2019-04-29T11:36:49.427Z,22.90
2019-04-29T11:39:19.370Z,23.87
2019-04-29T11:41:50.134Z,22.27
2019-04-29T11:44:21.857Z,22.15
2019-04-29T11:46:52.674Z,22.27
2019-04-29T11:49:24.361Z,24.82
2019-04-29T11:52:09.150Z,23.22
2019-04-29T11:54:26.204Z,23.22
2019-04-29T11:56:56.359Z,24.00
2019-04-29T11:59:30.799Z,24.07
2019-04-29T12:02:11.702Z,26.05
2019-04-29T12:04:52.273Z,26.40
2019-04-29T12:07:22.428Z,26.20
2019-04-29T12:09:52.837Z,27.20
2019-04-29T12:12:24.127Z,25.20
2019-04-29T12:14:55.739Z,25.72
2019-04-29T12:17:27.335Z,26.73
2019-04-29T12:20:04.992Z,24.75
2019-04-29T12:22:47.692Z,25.32
2019-04-29T12:25:07.482Z,23.85
2019-04-29T12:27:37.492Z,25.37
2019-04-29T12:30:09.814Z,22.65
2019-04-29T12:32:43.548Z,26.70
2019-04-29T12:35:30.216Z,25.68
2019-04-29T12:38:19.973Z,26.10
2019-04-29T12:40:55.028Z,27.17
2019-04-29T12:43:39.378Z,25.90
2019-04-29T12:46:22.907Z,27.07
2019-04-29T12:48:53.050Z,25.50
2019-04-29T12:51:23.720Z,28.57
2019-04-29T12:53:54.110Z,27.58
2019-04-29T12:56:37.701Z,28.25
2019-04-29T12:59:07.716Z,26.95
2019-04-29T13:01:51.240Z,27.85
2019-04-29T13:04:20.814Z,26.73
2019-04-29T13:06:55.431Z,31.48
2019-04-29T13:09:40.995Z,27.13
2019-04-29T13:12:19.003Z,25.68
2019-04-29T13:15:02.727Z,29.48
2019-04-29T13:17:44.910Z,29.20
2019-04-29T13:20:15.054Z,30.48
2019-04-29T13:22:45.180Z,30.82
2019-04-29T13:25:19.731Z,30.00
2019-04-29T13:27:47.627Z,28.10
2019-04-29T13:30:17.795Z,27.82
2019-04-29T13:33:16.569Z,27.82
2019-04-29T13:35:48.617Z,29.60
2019-04-29T13:38:14.728Z,25.88
2019-04-29T13:40:44.785Z,21.12
2019-04-29T13:43:14.743Z,23.27
2019-04-29T13:45:46.990Z,26.25
2019-04-29T13:48:54.156Z,24.35
2019-04-29T13:51:14.127Z,27.20
2019-04-29T13:53:44.462Z,26.15
2019-04-29T13:56:32.633Z,25.88
2019-04-29T13:58:46.453Z,23.10
2019-04-29T14:01:32.849Z,25.17
2019-04-29T14:04:00.418Z,24.80
2019-04-29T14:06:31.706Z,25.62
2019-04-29T14:09:03.904Z,25.77
2019-04-29T14:11:34.240Z,24.80
2019-04-29T14:14:04.803Z,23.85
2019-04-29T14:16:34.802Z,23.98
2019-04-29T14:19:04.946Z,24.67
2019-04-29T14:21:35.044Z,21.75
2019-04-29T14:24:05.233Z,21.82
2019-04-29T14:26:37.067Z,21.68
2019-04-29T14:29:07.080Z,21.52
2019-04-29T14:31:37.710Z,20.95
2019-04-29T14:34:09.347Z,18.90
2019-04-29T14:36:39.296Z,19.48
2019-04-29T14:39:12.964Z,21.20
2019-04-29T14:41:43.531Z,21.07
2019-04-29T14:44:18.207Z,18.92
2019-04-29T14:46:49.790Z,19.62
2019-04-29T14:49:21.573Z,19.50
2019-04-29T14:51:51.522Z,17.55
2019-04-29T14:54:21.931Z,17.73
2019-04-29T14:56:51.899Z,15.95
2019-04-29T14:59:22.056Z,17.10
2019-04-29T15:01:53.998Z,16.00
2019-04-29T15:04:25.887Z,15.95
2019-04-29T15:06:56.022Z,16.45
2019-04-29T15:09:26.164Z,15.48
2019-04-29T15:11:58.872Z,16.55
2019-04-29T15:14:31.338Z,15.23
2019-04-29T15:17:13.582Z,15.58
2019-04-29T15:19:55.295Z,15.58
2019-04-29T15:22:30.382Z,15.48
2019-04-29T15:25:00.396Z,15.23
2019-04-29T15:27:30.675Z,15.20
2019-04-29T15:30:00.821Z,15.08
2019-04-29T15:32:30.795Z,14.98
2019-04-29T15:35:00.823Z,13.72
2019-04-29T15:37:31.250Z,14.83
2019-04-29T15:40:01.363Z,14.65
2019-04-29T15:42:31.764Z,15.80
2019-04-29T15:45:01.718Z,14.47
2019-04-29T15:47:33.113Z,13.88
2019-04-29T15:50:18.167Z,15.53
2019-04-29T15:52:35.391Z,15.48
2019-04-29T15:55:06.098Z,15.78
2019-04-29T15:57:36.224Z,14.98
2019-04-29T16:00:21.599Z,14.87
2019-04-29T16:02:43.659Z,14.43
2019-04-29T16:05:15.342Z,16.35
2019-04-29T16:07:57.224Z,16.00
2019-04-29T16:10:31.445Z,15.78
2019-04-29T16:13:12.079Z,16.07
2019-04-29T16:15:42.050Z,15.55
2019-04-29T16:18:14.831Z,17.40
2019-04-29T16:20:45.241Z,17.10
2019-04-29T16:23:15.251Z,18.20
2019-04-29T16:25:50.108Z,18.27
2019-04-29T16:28:16.914Z,18.27
2019-04-29T16:30:46.888Z,18.15
2019-04-29T16:33:16.916Z,18.00
2019-04-29T16:35:47.142Z,17.85
2019-04-29T16:38:17.151Z,18.45
2019-04-29T16:40:48.904Z,19.37
2019-04-29T16:43:27.492Z,20.30
2019-04-29T16:46:06.525Z,18.98
2019-04-29T16:48:39.527Z,20.43
2019-04-29T16:51:14.058Z,19.98
2019-04-29T16:53:41.441Z,19.77
2019-04-29T16:56:16.068Z,19.42
2019-04-29T16:58:43.413Z,20.62
2019-04-29T17:01:13.499Z,19.35
2019-04-29T17:03:43.564Z,20.52
2019-04-29T17:06:13.614Z,19.40
2019-04-29T17:09:04.968Z,20.45
2019-04-29T17:11:41.556Z,20.37
2019-04-29T17:14:13.035Z,21.90
2019-04-29T17:16:43.247Z,21.80
2019-04-29T17:19:13.213Z,21.97
2019-04-29T17:21:43.249Z,22.62
2019-04-29T17:24:13.036Z,23.18
2019-04-29T17:26:44.607Z,20.77
2019-04-29T17:29:38.563Z,22.62
2019-04-29T17:32:05.132Z,25.10
2019-04-29T17:34:58.438Z,23.80
2019-04-29T17:37:09.150Z,27.02
2019-04-29T17:39:39.175Z,25.55
2019-04-29T17:42:09.249Z,26.80
2019-04-29T17:44:43.572Z,27.62
2019-04-29T17:47:31.947Z,27.75
2019-04-29T17:50:15.730Z,28.63
2019-04-29T17:52:45.815Z,29.67
2019-04-29T17:55:25.032Z,28.25
2019-04-29T17:57:59.490Z,29.65
2019-04-29T18:00:55.565Z,29.72
2019-04-29T18:03:20.752Z,28.23
2019-04-29T18:05:59.601Z,27.00
2019-04-29T18:08:31.503Z,30.72
2019-04-29T18:11:08.150Z,27.82
2019-04-29T18:13:36.475Z,29.63
2019-04-29T18:16:17.427Z,29.67
2019-04-29T18:18:46.632Z,28.60
2019-04-29T18:21:22.211Z,30.08
2019-04-29T18:23:59.358Z,29.50
2019-04-29T18:26:36.525Z,28.17
2019-04-29T18:29:08.075Z,29.42
2019-04-29T18:31:39.197Z,28.07
2019-04-29T18:34:09.175Z,28.90
2019-04-29T18:36:39.135Z,27.85
2019-04-29T18:39:11.981Z,28.02
2019-04-29T18:41:41.933Z,28.73
2019-04-29T18:44:19.255Z,29.80
2019-04-29T18:46:53.116Z,29.35
2019-04-29T18:49:15.989Z,28.85
2019-04-29T18:51:46.315Z,28.80
2019-04-29T18:54:16.581Z,28.50
2019-04-29T18:56:46.671Z,28.50
2019-04-29T18:59:21.018Z,30.15
2019-04-29T19:01:48.332Z,29.60
2019-04-29T19:04:20.185Z,31.10
2019-04-29T19:06:51.204Z,32.25
2019-04-29T19:09:25.277Z,32.70
2019-04-29T19:11:55.383Z,33.13
2019-04-29T19:14:28.188Z,31.50
2019-04-29T19:17:01.136Z,33.10
2019-04-29T19:19:30.854Z,31.77
2019-04-29T19:22:00.801Z,32.83
2019-04-29T19:24:36.299Z,33.73
2019-04-29T19:27:09.136Z,34.58
2019-04-29T19:29:38.816Z,34.83
2019-04-29T19:32:07.549Z,36.25
2019-04-29T19:34:42.933Z,36.73
2019-04-29T19:37:09.221Z,36.00
2019-04-29T19:39:39.179Z,35.92
2019-04-29T19:42:09.119Z,36.13
2019-04-29T19:44:39.058Z,34.55
2019-04-29T19:47:10.846Z,35.83
2019-04-29T19:49:44.621Z,39.03
2019-04-29T19:52:19.044Z,38.45
2019-04-29T19:54:45.485Z,38.10
2019-04-29T19:57:15.614Z,38.10
2019-04-29T19:59:51.206Z,39.18
2019-04-29T20:02:17.921Z,39.73
2019-04-29T20:04:52.436Z,38.60
2019-04-29T20:07:22.332Z,40.00
2019-04-29T20:10:03.262Z,40.25
2019-04-29T20:12:26.659Z,40.58
2019-04-29T20:14:59.736Z,40.75
2019-04-29T20:17:36.876Z,42.03
2019-04-29T20:20:12.772Z,41.05
2019-04-29T20:22:48.229Z,42.35
2019-04-29T20:25:16.490Z,40.60
2019-04-29T20:27:46.830Z,39.27
2019-04-29T20:30:20.740Z,41.23
2019-04-29T20:32:48.901Z,42.03
2019-04-29T20:35:19.180Z,43.23
2019-04-29T20:37:55.611Z,45.75
2019-04-29T20:40:21.197Z,43.20
2019-04-29T20:42:51.474Z,44.50
2019-04-29T20:45:27.219Z,42.78
2019-04-29T20:47:54.042Z,45.75
2019-04-29T20:50:26.464Z,44.27
2019-04-29T20:53:05.809Z,42.05
2019-04-29T20:55:36.475Z,42.08
2019-04-29T20:58:07.387Z,42.80
2019-04-29T21:00:38.967Z,43.38
2019-04-29T21:03:11.348Z,44.38
2019-04-29T21:05:48.172Z,44.98
2019-04-29T21:08:16.333Z,44.10
2019-04-29T21:10:48.226Z,41.85
2019-04-29T21:13:33.106Z,41.35
2019-04-29T21:16:05.310Z,40.92
2019-04-29T21:18:37.275Z,42.88
2019-04-29T21:21:07.954Z,41.15
2019-04-29T21:23:38.111Z,43.38
2019-04-29T21:26:08.812Z,41.92
2019-04-29T21:28:41.845Z,42.15
2019-04-29T21:31:11.769Z,43.08
2019-04-29T21:33:42.431Z,41.20
2019-04-29T21:36:20.199Z,43.10
2019-04-29T21:39:08.087Z,42.85
2019-04-29T21:41:45.754Z,41.68
2019-04-29T21:44:15.650Z,42.85
2019-04-29T21:46:45.859Z,40.52
2019-04-29T21:49:16.138Z,43.23
2019-04-29T21:51:49.803Z,39.67
2019-04-29T21:54:17.779Z,41.90
2019-04-29T21:56:48.151Z,41.33
2019-04-29T21:59:18.284Z,37.48
2019-04-29T22:01:48.239Z,35.13
2019-04-29T22:04:17.911Z,37.13
2019-04-29T22:06:47.542Z,37.20
2019-04-29T22:09:18.040Z,42.55
2019-04-29T22:11:48.918Z,35.52
2019-04-29T22:14:19.767Z,42.13
2019-04-29T22:16:54.257Z,41.75
2019-04-29T22:19:24.624Z,39.65
2019-04-29T22:21:57.821Z,40.73
2019-04-29T22:24:26.265Z,41.13
2019-04-29T22:27:04.050Z,40.17
2019-04-29T22:29:31.981Z,39.48
2019-04-29T22:31:59.946Z,37.20
2019-04-29T22:34:29.997Z,38.75
2019-04-29T22:37:01.216Z,39.60
2019-04-29T22:39:31.631Z,39.23
2019-04-29T22:42:05.933Z,40.67
2019-04-29T22:44:36.149Z,36.75
2019-04-29T22:47:07.380Z,39.45
2019-04-29T22:49:37.442Z,38.05
2019-04-29T22:52:08.958Z,38.10
2019-04-29T22:54:40.318Z,33.92
2019-04-29T22:57:10.259Z,34.25
2019-04-29T22:59:40.208Z,36.88
2019-04-29T23:02:10.521Z,35.03
2019-04-29T23:04:40.555Z,33.88
2019-04-29T23:07:10.527Z,32.73
2019-04-29T23:09:41.640Z,33.48
2019-04-29T23:12:17.037Z,34.20
2019-04-29T23:14:44.740Z,31.25
2019-04-29T23:17:15.925Z,32.15
2019-04-29T23:19:50.673Z,31.48
2019-04-29T23:22:27.056Z,30.27
2019-04-29T23:24:58.715Z,30.62
2019-04-29T23:27:28.700Z,29.82
2019-04-29T23:29:58.629Z,31.48
2019-04-29T23:32:28.569Z,30.30
2019-04-29T23:35:01.751Z,30.12
2019-04-29T23:37:30.430Z,25.05
2019-04-29T23:40:00.385Z,25.57
2019-04-29T23:42:30.560Z,25.88
2019-04-29T23:45:00.507Z,26.80
2019-04-29T23:47:30.798Z,26.70
2019-04-29T23:50:00.784Z,23.65
2019-04-29T23:52:30.766Z,24.30
2019-04-29T23:55:00.771Z,20.60
2019-04-29T23:57:48.955Z,23.38
